sensor_id;sensor_type;location;lat;lon;timestamp;pressure;altitude;pressure_sealevel;temperature;humidity
69689;BME280;56932;38.402;-96.176;2022-10-16T00:01:15;97558.77;;;21.28;27.17
69689;BME280;56932;38.402;-96.176;2022-10-16T00:03:39;97568.17;;;21.49;26.83
69689;BME280;56932;38.402;-96.176;2022-10-16T00:06:05;97572.27;;;21.63;26.23
69689;BME280;56932;38.402;-96.176;2022-10-16T00:08:30;97574.73;;;21.88;26.18
69689;BME280;56932;38.402;-96.176;2022-10-16T00:11:00;97572.42;;;22.19;26.19
69689;BME280;56932;38.402;-96.176;2022-10-16T00:13:21;97579.81;;;21.61;26.75
69689;BME280;56932;38.402;-96.176;2022-10-16T00:15:46;97581.30;;;21.68;26.48
69689;BME280;56932;38.402;-96.176;2022-10-16T00:18:11;97588.95;;;21.56;26.61
69689;BME280;56932;38.402;-96.176;2022-10-16T00:20:37;97593.62;;;21.55;26.93
69689;BME280;56932;38.402;-96.176;2022-10-16T00:23:03;97593.30;;;22.13;26.38
69689;BME280;56932;38.402;-96.176;2022-10-16T00:25:28;97593.15;;;21.52;26.70
69689;BME280;56932;38.402;-96.176;2022-10-16T00:27:53;97596.48;;;21.78;26.75
69689;BME280;56932;38.402;-96.176;2022-10-16T00:30:19;97604.07;;;22.24;26.37
69689;BME280;56932;38.402;-96.176;2022-10-16T00:32:44;97609.25;;;22.07;26.54
69689;BME280;56932;38.402;-96.176;2022-10-16T00:35:09;97616.24;;;21.37;26.77
69689;BME280;56932;38.402;-96.176;2022-10-16T00:37:35;97615.87;;;21.38;27.21
69689;BME280;56932;38.402;-96.176;2022-10-16T00:40:00;97624.67;;;22.20;26.41
69689;BME280;56932;38.402;-96.176;2022-10-16T00:42:26;97624.63;;;21.33;27.33
69689;BME280;56932;38.402;-96.176;2022-10-16T00:44:53;97627.54;;;21.71;27.00
69689;BME280;56932;38.402;-96.176;2022-10-16T00:47:22;97631.87;;;21.29;26.91
69689;BME280;56932;38.402;-96.176;2022-10-16T00:49:43;97632.70;;;21.48;27.24
69689;BME280;56932;38.402;-96.176;2022-10-16T00:52:08;97629.26;;;20.50;27.78
69689;BME280;56932;38.402;-96.176;2022-10-16T00:54:34;97636.07;;;22.11;26.72
69689;BME280;56932;38.402;-96.176;2022-10-16T00:57:01;97638.70;;;22.30;26.47
69689;BME280;56932;38.402;-96.176;2022-10-16T00:59:27;97641.67;;;21.23;27.57
69689;BME280;56932;38.402;-96.176;2022-10-16T01:01:50;97644.84;;;21.48;27.43
69689;BME280;56932;38.402;-96.176;2022-10-16T01:04:16;97646.93;;;21.56;27.02
69689;BME280;56932;38.402;-96.176;2022-10-16T01:06:47;97650.75;;;21.47;27.36
69689;BME280;56932;38.402;-96.176;2022-10-16T01:09:14;97645.58;;;22.00;26.38
69689;BME280;56932;38.402;-96.176;2022-10-16T01:11:36;97651.48;;;22.10;26.49
69689;BME280;56932;38.402;-96.176;2022-10-16T01:14:02;97656.02;;;21.64;27.24
69689;BME280;56932;38.402;-96.176;2022-10-16T01:16:30;97655.72;;;21.74;27.15
69689;BME280;56932;38.402;-96.176;2022-10-16T01:18:54;97653.41;;;21.60;27.29
69689;BME280;56932;38.402;-96.176;2022-10-16T01:21:18;97652.43;;;21.12;27.68
69689;BME280;56932;38.402;-96.176;2022-10-16T01:23:48;97655.77;;;21.71;27.26
69689;BME280;56932;38.402;-96.176;2022-10-16T01:26:16;97658.52;;;21.27;27.46
69689;BME280;56932;38.402;-96.176;2022-10-16T01:28:34;97655.46;;;21.42;27.28
69689;BME280;56932;38.402;-96.176;2022-10-16T01:30:58;97656.10;;;21.59;27.33
69689;BME280;56932;38.402;-96.176;2022-10-16T01:33:26;97664.17;;;22.00;27.22
69689;BME280;56932;38.402;-96.176;2022-10-16T01:35:53;97665.97;;;21.87;27.62
69689;BME280;56932;38.402;-96.176;2022-10-16T01:38:17;97666.03;;;21.24;27.61
69689;BME280;56932;38.402;-96.176;2022-10-16T01:40:41;97666.91;;;21.59;27.74
69689;BME280;56932;38.402;-96.176;2022-10-16T01:43:08;97669.01;;;21.39;27.76
69689;BME280;56932;38.402;-96.176;2022-10-16T01:45:31;97667.67;;;21.87;27.36
69689;BME280;56932;38.402;-96.176;2022-10-16T01:47:55;97667.95;;;20.68;28.68
69689;BME280;56932;38.402;-96.176;2022-10-16T01:50:20;97668.91;;;21.61;27.67
69689;BME280;56932;38.402;-96.176;2022-10-16T01:52:48;97674.54;;;21.54;27.75
69689;BME280;56932;38.402;-96.176;2022-10-16T01:55:17;97675.84;;;21.84;27.53
69689;BME280;56932;38.402;-96.176;2022-10-16T01:57:38;97678.35;;;21.34;28.14
69689;BME280;56932;38.402;-96.176;2022-10-16T02:00:07;97683.18;;;22.17;27.73
69689;BME280;56932;38.402;-96.176;2022-10-16T02:02:29;97682.63;;;21.21;28.61
69689;BME280;56932;38.402;-96.176;2022-10-16T02:04:57;97683.92;;;21.86;27.90
69689;BME280;56932;38.402;-96.176;2022-10-16T02:07:19;97682.27;;;21.50;28.04
69689;BME280;56932;38.402;-96.176;2022-10-16T02:09:44;97679.21;;;21.46;28.08
69689;BME280;56932;38.402;-96.176;2022-10-16T02:12:14;97677.37;;;20.85;28.41
69689;BME280;56932;38.402;-96.176;2022-10-16T02:14:38;97674.25;;;21.48;28.04
69689;BME280;56932;38.402;-96.176;2022-10-16T02:17:00;97678.58;;;22.16;27.37
69689;BME280;56932;38.402;-96.176;2022-10-16T02:19:26;97686.83;;;21.11;28.42
69689;BME280;56932;38.402;-96.176;2022-10-16T02:21:55;97689.08;;;21.56;27.97
69689;BME280;56932;38.402;-96.176;2022-10-16T02:24:21;97685.50;;;21.29;27.96
69689;BME280;56932;38.402;-96.176;2022-10-16T02:26:45;97685.50;;;21.93;27.59
69689;BME280;56932;38.402;-96.176;2022-10-16T02:29:12;97685.64;;;21.21;27.85
69689;BME280;56932;38.402;-96.176;2022-10-16T02:31:36;97690.77;;;21.56;27.96
69689;BME280;56932;38.402;-96.176;2022-10-16T02:34:00;97689.22;;;21.82;27.70
69689;BME280;56932;38.402;-96.176;2022-10-16T02:36:25;97687.28;;;21.57;27.98
69689;BME280;56932;38.402;-96.176;2022-10-16T02:38:50;97683.32;;;21.80;27.78
69689;BME280;56932;38.402;-96.176;2022-10-16T02:41:16;97683.45;;;21.51;28.11
69689;BME280;56932;38.402;-96.176;2022-10-16T02:43:41;97683.42;;;21.26;28.37
69689;BME280;56932;38.402;-96.176;2022-10-16T02:46:07;97677.87;;;20.43;28.94
69689;BME280;56932;38.402;-96.176;2022-10-16T02:48:32;97678.35;;;21.46;28.18
69689;BME280;56932;38.402;-96.176;2022-10-16T02:50:58;97672.72;;;20.97;28.74
69689;BME280;56932;38.402;-96.176;2022-10-16T02:53:23;97668.15;;;21.43;28.33
69689;BME280;56932;38.402;-96.176;2022-10-16T02:55:49;97676.94;;;21.60;28.62
69689;BME280;56932;38.402;-96.176;2022-10-16T02:58:14;97674.41;;;21.28;28.15
69689;BME280;56932;38.402;-96.176;2022-10-16T03:00:40;97676.29;;;21.57;28.66
69689;BME280;56932;38.402;-96.176;2022-10-16T03:03:06;97676.42;;;20.90;28.95
69689;BME280;56932;38.402;-96.176;2022-10-16T03:05:31;97675.30;;;20.09;30.26
69689;BME280;56932;38.402;-96.176;2022-10-16T03:07:56;97673.33;;;21.17;28.93
69689;BME280;56932;38.402;-96.176;2022-10-16T03:10:22;97669.67;;;21.54;28.46
69689;BME280;56932;38.402;-96.176;2022-10-16T03:12:47;97668.93;;;21.31;28.79
69689;BME280;56932;38.402;-96.176;2022-10-16T03:15:13;97669.78;;;20.82;29.02
69689;BME280;56932;38.402;-96.176;2022-10-16T03:17:38;97671.68;;;20.62;29.69
69689;BME280;56932;38.402;-96.176;2022-10-16T03:20:04;97667.79;;;21.41;29.19
69689;BME280;56932;38.402;-96.176;2022-10-16T03:22:29;97665.93;;;20.13;30.00
69689;BME280;56932;38.402;-96.176;2022-10-16T03:24:55;97661.54;;;20.79;29.52
69689;BME280;56932;38.402;-96.176;2022-10-16T03:27:20;97661.04;;;20.23;29.71
69689;BME280;56932;38.402;-96.176;2022-10-16T03:29:46;97662.79;;;20.53;29.64
69689;BME280;56932;38.402;-96.176;2022-10-16T03:32:11;97658.01;;;20.68;29.48
69689;BME280;56932;38.402;-96.176;2022-10-16T03:34:37;97661.39;;;20.90;29.49
69689;BME280;56932;38.402;-96.176;2022-10-16T03:37:02;97660.24;;;20.84;29.55
69689;BME280;56932;38.402;-96.176;2022-10-16T03:39:28;97658.00;;;20.22;30.13
69689;BME280;56932;38.402;-96.176;2022-10-16T03:41:53;97658.69;;;19.64;30.39
69689;BME280;56932;38.402;-96.176;2022-10-16T03:44:19;97660.95;;;20.43;29.78
69689;BME280;56932;38.402;-96.176;2022-10-16T03:46:44;97659.45;;;20.73;29.42
69689;BME280;56932;38.402;-96.176;2022-10-16T03:49:09;97660.72;;;19.96;29.95
69689;BME280;56932;38.402;-96.176;2022-10-16T03:51:35;97660.32;;;20.53;29.94
69689;BME280;56932;38.402;-96.176;2022-10-16T03:54:00;97662.59;;;20.82;29.33
69689;BME280;56932;38.402;-96.176;2022-10-16T03:56:26;97660.31;;;20.04;29.93
69689;BME280;56932;38.402;-96.176;2022-10-16T03:58:51;97661.99;;;21.03;29.40
69689;BME280;56932;38.402;-96.176;2022-10-16T04:01:17;97661.17;;;20.79;29.59
69689;BME280;56932;38.402;-96.176;2022-10-16T04:03:42;97667.88;;;21.02;28.88
69689;BME280;56932;38.402;-96.176;2022-10-16T04:06:08;97668.17;;;19.57;30.45
69689;BME280;56932;38.402;-96.176;2022-10-16T04:08:33;97675.86;;;21.01;28.89
69689;BME280;56932;38.402;-96.176;2022-10-16T04:10:59;97679.78;;;21.01;28.89
69689;BME280;56932;38.402;-96.176;2022-10-16T04:13:24;97677.29;;;20.14;29.99
69689;BME280;56932;38.402;-96.176;2022-10-16T04:15:50;97679.39;;;20.81;29.57
69689;BME280;56932;38.402;-96.176;2022-10-16T04:18:15;97678.92;;;20.79;29.13
69689;BME280;56932;38.402;-96.176;2022-10-16T04:20:41;97679.01;;;20.96;29.15
69689;BME280;56932;38.402;-96.176;2022-10-16T04:23:07;97676.52;;;19.99;30.00
69689;BME280;56932;38.402;-96.176;2022-10-16T04:25:32;97679.54;;;20.90;29.51
69689;BME280;56932;38.402;-96.176;2022-10-16T04:27:57;97683.99;;;20.95;29.44
69689;BME280;56932;38.402;-96.176;2022-10-16T04:30:23;97681.57;;;20.30;29.66
69689;BME280;56932;38.402;-96.176;2022-10-16T04:32:49;97688.19;;;21.66;28.68
69689;BME280;56932;38.402;-96.176;2022-10-16T04:35:14;97685.67;;;19.93;30.24
69689;BME280;56932;38.402;-96.176;2022-10-16T04:37:39;97690.73;;;21.02;29.14
69689;BME280;56932;38.402;-96.176;2022-10-16T04:40:06;97691.80;;;20.72;29.19
69689;BME280;56932;38.402;-96.176;2022-10-16T04:42:30;97693.74;;;20.43;29.52
69689;BME280;56932;38.402;-96.176;2022-10-16T04:44:56;97700.55;;;21.17;28.98
69689;BME280;56932;38.402;-96.176;2022-10-16T04:47:22;97705.34;;;20.62;29.35
69689;BME280;56932;38.402;-96.176;2022-10-16T04:49:47;97710.57;;;21.41;28.70
69689;BME280;56932;38.402;-96.176;2022-10-16T04:52:12;97714.91;;;20.01;29.97
69689;BME280;56932;38.402;-96.176;2022-10-16T04:54:38;97718.68;;;20.83;29.35
69689;BME280;56932;38.402;-96.176;2022-10-16T04:57:03;97721.20;;;21.13;29.23
69689;BME280;56932;38.402;-96.176;2022-10-16T04:59:29;97722.93;;;21.07;29.27
69689;BME280;56932;38.402;-96.176;2022-10-16T05:01:54;97722.81;;;20.95;29.22
69689;BME280;56932;38.402;-96.176;2022-10-16T05:04:20;97725.57;;;20.42;30.06
69689;BME280;56932;38.402;-96.176;2022-10-16T05:06:45;97728.03;;;20.98;29.42
69689;BME280;56932;38.402;-96.176;2022-10-16T05:09:11;97728.04;;;20.08;29.89
69689;BME280;56932;38.402;-96.176;2022-10-16T05:11:36;97729.78;;;20.43;30.05
69689;BME280;56932;38.402;-96.176;2022-10-16T05:14:02;97730.17;;;20.64;29.69
69689;BME280;56932;38.402;-96.176;2022-10-16T05:16:28;97733.62;;;19.99;30.25
69689;BME280;56932;38.402;-96.176;2022-10-16T05:18:53;97738.20;;;21.05;29.32
69689;BME280;56932;38.402;-96.176;2022-10-16T05:21:18;97740.86;;;19.92;29.51
69689;BME280;56932;38.402;-96.176;2022-10-16T05:23:44;97743.91;;;20.95;29.17
69689;BME280;56932;38.402;-96.176;2022-10-16T05:26:09;97746.81;;;19.86;30.02
69689;BME280;56932;38.402;-96.176;2022-10-16T05:28:35;97747.08;;;20.90;29.44
69689;BME280;56932;38.402;-96.176;2022-10-16T05:31:04;97753.51;;;20.26;30.15
69689;BME280;56932;38.402;-96.176;2022-10-16T05:33:26;97752.40;;;20.62;29.81
69689;BME280;56932;38.402;-96.176;2022-10-16T05:35:51;97755.94;;;20.44;29.55
69689;BME280;56932;38.402;-96.176;2022-10-16T05:38:17;97758.52;;;20.51;29.98
69689;BME280;56932;38.402;-96.176;2022-10-16T05:40:43;97763.29;;;19.93;30.56
69689;BME280;56932;38.402;-96.176;2022-10-16T05:43:08;97758.28;;;20.47;29.42
69689;BME280;56932;38.402;-96.176;2022-10-16T05:45:33;97758.10;;;20.83;29.53
69689;BME280;56932;38.402;-96.176;2022-10-16T05:48:00;97759.23;;;20.47;30.25
69689;BME280;56932;38.402;-96.176;2022-10-16T05:50:24;97758.16;;;20.67;29.51
69689;BME280;56932;38.402;-96.176;2022-10-16T05:52:50;97759.52;;;21.17;29.21
69689;BME280;56932;38.402;-96.176;2022-10-16T05:55:15;97766.12;;;21.25;29.12
69689;BME280;56932;38.402;-96.176;2022-10-16T05:57:41;97772.63;;;19.90;30.67
69689;BME280;56932;38.402;-96.176;2022-10-16T06:00:07;97774.65;;;19.27;30.81
69689;BME280;56932;38.402;-96.176;2022-10-16T06:02:32;97784.77;;;19.37;30.96
69689;BME280;56932;38.402;-96.176;2022-10-16T06:04:57;97791.40;;;20.22;30.31
69689;BME280;56932;38.402;-96.176;2022-10-16T06:07:23;97799.32;;;19.52;31.09
69689;BME280;56932;38.402;-96.176;2022-10-16T06:09:49;97805.13;;;20.89;29.59
69689;BME280;56932;38.402;-96.176;2022-10-16T06:12:14;97806.76;;;20.05;29.45
69689;BME280;56932;38.402;-96.176;2022-10-16T06:14:39;97809.98;;;20.69;29.76
69689;BME280;56932;38.402;-96.176;2022-10-16T06:17:05;97811.06;;;20.44;30.03
69689;BME280;56932;38.402;-96.176;2022-10-16T06:19:30;97813.18;;;20.26;30.21
69689;BME280;56932;38.402;-96.176;2022-10-16T06:21:55;97812.42;;;20.34;30.18
69689;BME280;56932;38.402;-96.176;2022-10-16T06:24:21;97809.70;;;20.70;29.50
69689;BME280;56932;38.402;-96.176;2022-10-16T06:26:46;97815.24;;;20.51;29.94
69689;BME280;56932;38.402;-96.176;2022-10-16T06:29:12;97810.11;;;19.70;30.27
69689;BME280;56932;38.402;-96.176;2022-10-16T06:31:37;97808.10;;;20.77;29.67
69689;BME280;56932;38.402;-96.176;2022-10-16T06:34:03;97808.59;;;20.17;30.24
69689;BME280;56932;38.402;-96.176;2022-10-16T06:36:28;97808.61;;;20.57;29.56
69689;BME280;56932;38.402;-96.176;2022-10-16T06:38:53;97808.51;;;20.50;29.65
69689;BME280;56932;38.402;-96.176;2022-10-16T06:41:20;97813.66;;;20.16;30.06
69689;BME280;56932;38.402;-96.176;2022-10-16T06:43:46;97818.49;;;19.89;30.50
69689;BME280;56932;38.402;-96.176;2022-10-16T06:46:11;97820.42;;;19.65;30.04
69689;BME280;56932;38.402;-96.176;2022-10-16T06:48:35;97825.31;;;20.52;29.94
69689;BME280;56932;38.402;-96.176;2022-10-16T06:51:02;97825.56;;;20.53;29.86
69689;BME280;56932;38.402;-96.176;2022-10-16T06:53:28;97827.79;;;20.40;30.02
69689;BME280;56932;38.402;-96.176;2022-10-16T06:55:52;97824.01;;;20.66;29.73
69689;BME280;56932;38.402;-96.176;2022-10-16T06:58:17;97823.21;;;19.61;30.34
69689;BME280;56932;38.402;-96.176;2022-10-16T07:00:42;97821.80;;;20.07;30.32
69689;BME280;56932;38.402;-96.176;2022-10-16T07:03:08;97821.54;;;20.30;29.69
69689;BME280;56932;38.402;-96.176;2022-10-16T07:05:37;97822.00;;;19.51;30.90
69689;BME280;56932;38.402;-96.176;2022-10-16T07:07:58;97822.03;;;20.09;30.37
69689;BME280;56932;38.402;-96.176;2022-10-16T07:10:24;97822.50;;;19.99;30.37
69689;BME280;56932;38.402;-96.176;2022-10-16T07:12:49;97824.69;;;20.48;30.05
69689;BME280;56932;38.402;-96.176;2022-10-16T07:15:15;97831.56;;;19.47;30.49
69689;BME280;56932;38.402;-96.176;2022-10-16T07:17:40;97836.59;;;20.15;30.21
69689;BME280;56932;38.402;-96.176;2022-10-16T07:20:07;97837.62;;;20.50;29.30
69689;BME280;56932;38.402;-96.176;2022-10-16T07:22:31;97846.32;;;20.63;29.67
69689;BME280;56932;38.402;-96.176;2022-10-16T07:24:56;97848.35;;;20.19;30.47
69689;BME280;56932;38.402;-96.176;2022-10-16T07:27:21;97853.53;;;19.55;30.68
69689;BME280;56932;38.402;-96.176;2022-10-16T07:29:47;97852.88;;;20.48;29.62
69689;BME280;56932;38.402;-96.176;2022-10-16T07:32:13;97850.87;;;19.34;30.27
69689;BME280;56932;38.402;-96.176;2022-10-16T07:34:38;97850.14;;;20.62;29.69
69689;BME280;56932;38.402;-96.176;2022-10-16T07:37:04;97848.63;;;20.38;29.93
69689;BME280;56932;38.402;-96.176;2022-10-16T07:39:29;97850.14;;;20.12;30.17
69689;BME280;56932;38.402;-96.176;2022-10-16T07:41:54;97850.87;;;20.55;29.75
69689;BME280;56932;38.402;-96.176;2022-10-16T07:44:20;97853.18;;;20.46;29.85
69689;BME280;56932;38.402;-96.176;2022-10-16T07:46:45;97855.07;;;20.09;30.20
69689;BME280;56932;38.402;-96.176;2022-10-16T07:49:10;97858.22;;;19.88;29.99
69689;BME280;56932;38.402;-96.176;2022-10-16T07:51:36;97856.94;;;20.20;30.51
69689;BME280;56932;38.402;-96.176;2022-10-16T07:54:02;97853.51;;;20.28;30.05
69689;BME280;56932;38.402;-96.176;2022-10-16T07:56:27;97854.81;;;21.06;29.48
69689;BME280;56932;38.402;-96.176;2022-10-16T07:58:52;97853.67;;;19.76;30.59
69689;BME280;56932;38.402;-96.176;2022-10-16T08:01:18;97850.51;;;20.11;30.20
69689;BME280;56932;38.402;-96.176;2022-10-16T08:03:45;97847.53;;;20.49;29.81
69689;BME280;56932;38.402;-96.176;2022-10-16T08:06:09;97845.38;;;19.74;29.84
69689;BME280;56932;38.402;-96.176;2022-10-16T08:08:34;97846.21;;;20.28;29.55
69689;BME280;56932;38.402;-96.176;2022-10-16T08:11:00;97849.35;;;20.70;29.55
69689;BME280;56932;38.402;-96.176;2022-10-16T08:13:26;97848.16;;;20.16;30.13
69689;BME280;56932;38.402;-96.176;2022-10-16T08:15:51;97850.29;;;20.59;29.66
69689;BME280;56932;38.402;-96.176;2022-10-16T08:18:17;97851.03;;;19.83;30.02
69689;BME280;56932;38.402;-96.176;2022-10-16T08:20:43;97851.67;;;19.99;30.14
69689;BME280;56932;38.402;-96.176;2022-10-16T08:23:10;97850.70;;;19.07;30.84
69689;BME280;56932;38.402;-96.176;2022-10-16T08:25:35;97849.61;;;19.06;31.35
69689;BME280;56932;38.402;-96.176;2022-10-16T08:27:59;97853.80;;;19.92;30.40
69689;BME280;56932;38.402;-96.176;2022-10-16T08:30:24;97856.92;;;19.77;30.33
69689;BME280;56932;38.402;-96.176;2022-10-16T08:32:50;97853.72;;;20.15;30.41
69689;BME280;56932;38.402;-96.176;2022-10-16T08:35:16;97848.55;;;19.22;30.94
69689;BME280;56932;38.402;-96.176;2022-10-16T08:37:41;97847.59;;;19.61;31.02
69689;BME280;56932;38.402;-96.176;2022-10-16T08:40:12;97854.80;;;19.89;30.18
69689;BME280;56932;38.402;-96.176;2022-10-16T08:42:45;97855.83;;;19.91;29.59
69689;BME280;56932;38.402;-96.176;2022-10-16T08:47:25;97862.72;;;19.92;29.54
69689;BME280;56932;38.402;-96.176;2022-10-16T08:49:57;97868.29;;;20.66;29.50
69689;BME280;56932;38.402;-96.176;2022-10-16T08:52:14;97871.25;;;19.82;29.60
69689;BME280;56932;38.402;-96.176;2022-10-16T08:54:43;97870.83;;;20.50;29.67
69689;BME280;56932;38.402;-96.176;2022-10-16T08:57:11;97873.88;;;20.58;29.11
69689;BME280;56932;38.402;-96.176;2022-10-16T08:59:30;97868.97;;;20.43;29.45
69689;BME280;56932;38.402;-96.176;2022-10-16T09:01:56;97872.14;;;21.20;28.86
69689;BME280;56932;38.402;-96.176;2022-10-16T09:06:52;97870.89;;;19.33;30.43
69689;BME280;56932;38.402;-96.176;2022-10-16T09:11:45;97860.38;;;20.44;29.73
69689;BME280;56932;38.402;-96.176;2022-10-16T09:14:11;97857.60;;;20.06;29.60
69689;BME280;56932;38.402;-96.176;2022-10-16T09:16:32;97858.31;;;19.67;30.59
69689;BME280;56932;38.402;-96.176;2022-10-16T09:19:00;97864.53;;;20.66;29.73
69689;BME280;56932;38.402;-96.176;2022-10-16T09:21:24;97864.34;;;19.51;31.10
69689;BME280;56932;38.402;-96.176;2022-10-16T09:23:46;97864.15;;;20.01;30.45
69689;BME280;56932;38.402;-96.176;2022-10-16T09:26:13;97870.74;;;19.96;29.76
69689;BME280;56932;38.402;-96.176;2022-10-16T09:28:37;97872.88;;;19.50;30.73
69689;BME280;56932;38.402;-96.176;2022-10-16T09:31:03;97870.89;;;20.72;29.95
69689;BME280;56932;38.402;-96.176;2022-10-16T09:33:35;97864.73;;;20.05;30.13
69689;BME280;56932;38.402;-96.176;2022-10-16T09:35:55;97862.40;;;18.84;32.07
69689;BME280;56932;38.402;-96.176;2022-10-16T09:38:24;97864.29;;;20.01;30.51
69689;BME280;56932;38.402;-96.176;2022-10-16T09:40:44;97859.39;;;19.28;31.26
69689;BME280;56932;38.402;-96.176;2022-10-16T09:43:21;97857.04;;;18.64;31.22
69689;BME280;56932;38.402;-96.176;2022-10-16T09:45:35;97851.22;;;19.03;31.53
69689;BME280;56932;38.402;-96.176;2022-10-16T09:48:10;97855.10;;;19.62;30.36
69689;BME280;56932;38.402;-96.176;2022-10-16T09:50:28;97863.94;;;20.16;29.99
69689;BME280;56932;38.402;-96.176;2022-10-16T09:52:51;97866.02;;;19.73;30.95
69689;BME280;56932;38.402;-96.176;2022-10-16T09:55:18;97863.25;;;19.59;30.33
69689;BME280;56932;38.402;-96.176;2022-10-16T09:57:50;97862.15;;;20.39;29.67
69689;BME280;56932;38.402;-96.176;2022-10-16T10:00:09;97864.95;;;19.71;29.98
69689;BME280;56932;38.402;-96.176;2022-10-16T10:02:35;97866.87;;;19.96;30.16
69689;BME280;56932;38.402;-96.176;2022-10-16T10:04:59;97869.45;;;19.66;30.44
69689;BME280;56932;38.402;-96.176;2022-10-16T10:07:26;97874.63;;;19.96;30.47
69689;BME280;56932;38.402;-96.176;2022-10-16T10:09:50;97883.49;;;19.99;30.40
69689;BME280;56932;38.402;-96.176;2022-10-16T10:12:21;97887.73;;;19.25;30.92
69689;BME280;56932;38.402;-96.176;2022-10-16T10:14:44;97893.34;;;19.48;30.67
69689;BME280;56932;38.402;-96.176;2022-10-16T10:17:13;97896.86;;;19.53;30.59
69689;BME280;56932;38.402;-96.176;2022-10-16T10:19:38;97899.11;;;19.92;30.15
69689;BME280;56932;38.402;-96.176;2022-10-16T10:21:57;97900.62;;;19.95;30.73
69689;BME280;56932;38.402;-96.176;2022-10-16T10:24:22;97907.81;;;18.41;31.95
69689;BME280;56932;38.402;-96.176;2022-10-16T10:26:54;97916.66;;;19.78;30.39
69689;BME280;56932;38.402;-96.176;2022-10-16T10:29:19;97912.93;;;19.47;30.69
69689;BME280;56932;38.402;-96.176;2022-10-16T10:31:43;97912.74;;;18.89;31.23
69689;BME280;56932;38.402;-96.176;2022-10-16T10:34:14;97913.70;;;19.84;30.60
69689;BME280;56932;38.402;-96.176;2022-10-16T10:36:34;97911.24;;;19.24;31.21
69689;BME280;56932;38.402;-96.176;2022-10-16T10:38:59;97921.67;;;19.81;30.21
69689;BME280;56932;38.402;-96.176;2022-10-16T10:43:56;97923.08;;;19.46;30.30
69689;BME280;56932;38.402;-96.176;2022-10-16T10:46:19;97931.79;;;20.17;29.83
69689;BME280;56932;38.402;-96.176;2022-10-16T10:48:51;97931.59;;;19.19;31.19
69689;BME280;56932;38.402;-96.176;2022-10-16T10:51:07;97935.21;;;19.61;30.96
69689;BME280;56932;38.402;-96.176;2022-10-16T10:53:37;97934.90;;;20.02;30.35
69689;BME280;56932;38.402;-96.176;2022-10-16T10:56:00;97934.27;;;19.54;30.55
69689;BME280;56932;38.402;-96.176;2022-10-16T10:58:32;97936.06;;;18.89;31.22
69689;BME280;56932;38.402;-96.176;2022-10-16T11:00:53;97936.46;;;19.30;31.17
69689;BME280;56932;38.402;-96.176;2022-10-16T11:03:20;97938.29;;;19.42;30.31
69689;BME280;56932;38.402;-96.176;2022-10-16T11:05:41;97944.11;;;19.72;30.74
69689;BME280;56932;38.402;-96.176;2022-10-16T11:08:09;97947.50;;;19.85;30.88
69689;BME280;56932;38.402;-96.176;2022-10-16T11:10:32;97960.08;;;20.15;30.30
69689;BME280;56932;38.402;-96.176;2022-10-16T11:12:57;97970.51;;;19.68;30.74
69689;BME280;56932;38.402;-96.176;2022-10-16T11:15:23;97968.86;;;19.53;30.70
69689;BME280;56932;38.402;-96.176;2022-10-16T11:17:49;97973.77;;;19.85;30.93
69689;BME280;56932;38.402;-96.176;2022-10-16T11:20:16;97974.73;;;18.99;30.70
69689;BME280;56932;38.402;-96.176;2022-10-16T11:22:37;97973.61;;;20.30;30.10
69689;BME280;56932;38.402;-96.176;2022-10-16T11:25:06;97970.54;;;20.06;30.04
69689;BME280;56932;38.402;-96.176;2022-10-16T11:27:34;97971.62;;;19.99;29.83
69689;BME280;56932;38.402;-96.176;2022-10-16T11:29:55;97970.82;;;19.84;30.18
69689;BME280;56932;38.402;-96.176;2022-10-16T11:32:23;97976.88;;;20.07;29.97
69689;BME280;56932;38.402;-96.176;2022-10-16T11:34:47;97978.29;;;20.11;29.85
69689;BME280;56932;38.402;-96.176;2022-10-16T11:37:11;97981.71;;;19.49;30.05
69689;BME280;56932;38.402;-96.176;2022-10-16T11:39:34;97986.83;;;20.03;30.27
69689;BME280;56932;38.402;-96.176;2022-10-16T11:42:05;97992.96;;;19.86;30.42
69689;BME280;56932;38.402;-96.176;2022-10-16T11:44:38;97990.60;;;19.42;31.56
69689;BME280;56932;38.402;-96.176;2022-10-16T11:46:57;97999.92;;;19.58;31.38
69689;BME280;56932;38.402;-96.176;2022-10-16T11:49:19;98002.70;;;20.05;30.56
69689;BME280;56932;38.402;-96.176;2022-10-16T11:51:43;98005.27;;;19.76;31.19
69689;BME280;56932;38.402;-96.176;2022-10-16T11:54:16;98004.95;;;18.95;31.70
69689;BME280;56932;38.402;-96.176;2022-10-16T11:56:33;98011.79;;;19.26;31.82
69689;BME280;56932;38.402;-96.176;2022-10-16T11:59:00;98010.96;;;19.81;31.26
69689;BME280;56932;38.402;-96.176;2022-10-16T12:01:29;98014.09;;;19.86;31.55
69689;BME280;56932;38.402;-96.176;2022-10-16T12:03:56;98018.94;;;19.63;31.80
69689;BME280;56932;38.402;-96.176;2022-10-16T12:06:27;98022.91;;;18.83;31.98
69689;BME280;56932;38.402;-96.176;2022-10-16T12:08:40;98028.09;;;19.80;31.74
69689;BME280;56932;38.402;-96.176;2022-10-16T12:11:09;98024.83;;;19.67;31.59
69689;BME280;56932;38.402;-96.176;2022-10-16T12:13:32;98025.26;;;19.91;31.00
69689;BME280;56932;38.402;-96.176;2022-10-16T12:18:23;98036.91;;;19.64;32.18
69689;BME280;56932;38.402;-96.176;2022-10-16T12:20:56;98044.74;;;19.68;31.91
69689;BME280;56932;38.402;-96.176;2022-10-16T12:23:20;98045.83;;;19.85;31.66
69689;BME280;56932;38.402;-96.176;2022-10-16T12:25:40;98046.86;;;19.34;32.44
69689;BME280;56932;38.402;-96.176;2022-10-16T12:28:06;98049.03;;;19.41;32.08
69689;BME280;56932;38.402;-96.176;2022-10-16T12:30:32;98052.66;;;19.10;31.98
69689;BME280;56932;38.402;-96.176;2022-10-16T12:32:56;98057.00;;;19.36;32.37
69689;BME280;56932;38.402;-96.176;2022-10-16T12:35:22;98060.77;;;18.52;33.28
69689;BME280;56932;38.402;-96.176;2022-10-16T12:37:46;98068.64;;;19.68;31.64
69689;BME280;56932;38.402;-96.176;2022-10-16T12:40:14;98072.46;;;19.47;31.29
69689;BME280;56932;38.402;-96.176;2022-10-16T12:42:37;98084.30;;;19.71;31.57